Latest Coastal Weather Observations for Milingimbi

IDD60701

Issued at 10:41 pm CST Monday 29 May 2017 (issued every 10 minutes, with the page automatically refreshed every 10 minutes)

About coastal observations | Map of coastal stations | Coastal observations for NT | Marine services | Other Formats
Station Details ID: 014404 Name: MILINGIMBI AIRPORT Lat: -12.09 Lon: 134.89 Height: 15.0 m
Data from the previous 72 hours. | See also: Recent months at Milingimbi
Date/Time
CST
Temp
°C
Wind Pressure Rain since
9am
mm
Weather Cloud Vis
km
Sea
Height
m
Swell
Dir  Spd
kts
Gust
kts
hPa Trend Height
m
Period
s
Dir
29/10:30pm 25.2 - 10 15 1014.5 - 0.0 - - - - - - -
29/10:00pm 25.1 - 8 11 1014.5 - 0.0 - - - - - - -
29/09:30pm 25.5 - 8 11 1014.4 - 0.0 - - - - - - -
29/09:00pm 25.9 - 9 12 1014.1 - 0.0 - - - - - - -
29/08:30pm 26.4 - 9 13 1013.9 - 0.0 - - - - - - -
29/08:00pm 27.5 SE 12 17 1013.7 - 0.0 - - - - - - -
29/07:30pm 28.1 ESE 12 17 1013.4 - 0.0 - - - - - - -
29/07:00pm 28.2 ESE 9 13 1013.1 - 0.0 - - - - - - -
29/06:30pm 28.8 ESE 10 14 1012.9 - 0.0 - - - - - - -
29/06:00pm 28.9 ESE 9 14 1012.5 - 0.0 - - - - - - -
29/05:30pm 29.2 ESE 10 13 1012.3 - 0.0 - - - - - - -
29/05:00pm 30.1 ESE 8 13 1011.9 - 0.0 - - - - - - -
29/04:30pm 30.4 ESE 8 15 1011.7 - 0.0 - - - - - - -
29/04:00pm 30.7 ESE 9 14 1011.8 - 0.0 - - - - - - -
29/03:30pm 30.9 E 9 16 1011.8 - 0.0 - - - - - - -
29/03:00pm 31.7 E 10 17 1011.6 - 0.0 - - - - - - -
29/02:30pm 31.7 E 10 16 1011.8 - 0.0 - - - - - - -
29/02:00pm 31.0 E 9 17 1011.8 - 0.0 - - - - - - -
29/01:30pm 31.8 ESE 11 17 1011.8 - 0.0 - - - - - - -
29/01:00pm 31.5 ESE 10 16 1012.2 - 0.0 - - - - - - -
29/12:30pm 31.3 ESE 10 18 1012.8 - 0.0 - - - - - - -
29/12:00pm 30.4 ESE 12 18 1013.1 - 0.0 - - - - - - -
29/11:30am 30.5 ESE 11 16 1013.4 - 0.0 - - - - - - -
29/11:00am 30.4 ESE 13 19 1013.5 - 0.0 - - - - - - -
29/10:30am 29.4 ESE 11 17 1013.6 - 0.0 - - - - - - -
29/10:00am 28.8 - 14 21 1013.9 - 0.0 - - - - - - -
29/09:30am 28.6 - 11 15 1013.8 - 0.0 - - - - - - -
29/09:00am 27.8 - 10 16 1013.7 - 0.0 - - - - - - -
29/08:30am 26.5 - 8 11 1013.7 - 0.0 - - - - - - -
29/08:00am 24.7 - 8 11 1013.3 - 0.0 - - - - - - -
29/07:30am 23.3 - 5 8 1013.0 - 0.0 - - - - - - -
29/07:00am 22.3 - 4 5 1012.8 - 0.0 - - - - - - -
29/06:30am 22.4 - 5 6 1012.3 - 0.0 - - - - - - -
29/06:00am 22.7 - 5 7 1011.9 - 0.0 - - - - - - -
29/05:30am 22.9 - 5 7 1011.8 - 0.0 - - - - - - -
29/05:00am 23.1 - 6 8 1011.9 - 0.0 - - - - - - -
29/04:30am 23.2 - 6 7 1011.9 - 0.0 - - - - - - -
29/04:00am 23.2 - 5 6 1012.0 - 0.0 - - - - - - -
29/03:30am 23.4 - 5 6 1011.9 - 0.0 - - - - - - -
29/03:00am 23.7 - 6 9 1011.9 - 0.0 - - - - - - -
29/02:30am 24.0 - 6 8 1012.2 - 0.0 - - - - - - -
29/02:00am 24.3 - 7 10 1012.4 - 0.0 - - - - - - -
29/01:30am 24.5 - 7 9 1012.4 - 0.0 - - - - - - -
29/01:00am 24.8 - 8 10 1012.7 - 0.0 - - - - - - -
29/12:30am 25.0 - 7 9 1012.9 - 0.0 - - - - - - -
29/12:00am 25.2 - 7 9 1012.9 - 0.0 - - - - - - -
 
Date/Time
CST
Temp
°C
Wind Pressure Rain since
9am
mm
Weather Cloud Vis
km
Sea
Height
m
Swell
Dir  Spd
kts
Gust
kts
hPa Trend Height
m
Period
s
Dir
28/11:30pm 25.8 - 9 13 1013.3 - 0.0 - - - - - - -
28/11:00pm 26.3 - 10 15 1013.5 - 0.0 - - - - - - -
28/10:30pm 26.5 - 11 16 1013.3 - 0.0 - - - - - - -
28/10:00pm 26.7 - 10 15 1013.3 - 0.0 - - - - - - -
28/09:30pm 27.0 ESE 13 19 1013.0 - 0.0 - - - - - - -
28/09:00pm 27.3 SE 13 18 1012.6 - 0.0 - - - - - - -
28/08:30pm 27.4 SE 10 14 1012.6 - 0.0 - - - - - - -
28/08:00pm 27.4 SE 11 15 1012.3 - 0.0 - - - - - - -
28/07:30pm 28.0 SE 10 14 1012.0 - 0.0 - - - - - - -
28/07:00pm 28.5 SE 9 12 1011.6 - 0.0 - - - - - - -
28/06:30pm 29.0 SE 9 14 1011.1 - 0.0 - - - - - - -
28/06:00pm 29.6 SE 10 13 1010.6 - 0.0 - - - - - - -
28/05:30pm 30.3 ESE 8 13 1010.5 - 0.0 - - - - - - -
28/05:00pm 31.1 SE 10 15 1010.1 - 0.0 - - - - - - -
28/04:30pm 31.7 ESE 9 14 1010.1 - 0.0 - - - - - - -
28/04:00pm 31.4 ESE 7 11 1010.1 - 0.0 - - - - - - -
28/03:30pm 31.9 ESE 9 14 1010.1 - 0.0 - - - - - - -
28/03:00pm 31.6 E 9 14 1010.1 - 0.0 - - - - - - -
28/02:30pm 32.2 ESE 9 13 1010.3 - 0.0 - - - - - - -
28/02:00pm 31.8 ESE 10 14 1010.6 - 0.0 - - - - - - -
28/01:30pm 32.1 E 8 14 1011.1 - 0.0 - - - - - - -
28/01:00pm 32.1 ESE 8 14 1011.5 - 0.0 - - - - - - -
28/12:30pm 31.8 ESE 11 15 1011.9 - 0.0 - - - - - - -
28/12:00pm 30.7 ESE 11 17 1012.2 - 0.0 - - - - - - -
28/11:30am 31.2 ESE 14 19 1012.7 - 0.0 - - - - - - -
28/11:00am 30.1 ESE 13 20 1012.9 - 0.0 - - - - - - -
28/10:30am 29.8 ESE 13 19 1013.0 - 0.0 - - - - - - -
28/10:00am 29.3 SE 13 18 1013.1 - 0.0 - - - - - - -
28/09:30am 28.5 - 13 18 1013.1 - 0.0 - - - - - - -
28/09:00am 27.5 - 13 17 1013.0 - 0.0 - - - - - - -
28/08:30am 26.4 - 10 15 1013.1 - 0.0 - - - - - - -
28/08:00am 25.1 - 8 11 1012.7 - 0.0 - - - - - - -
28/07:30am 24.0 - 7 8 1012.3 - 0.0 - - - - - - -
28/07:00am 23.0 - 7 9 1012.1 - 0.0 - - - - - - -
28/06:30am 22.8 - 6 8 1011.8 - 0.0 - - - - - - -
28/06:00am 22.8 - 6 8 1011.7 - 0.0 - - - - - - -
28/05:30am 23.0 - 6 8 1011.6 - 0.0 - - - - - - -
28/05:00am 23.1 - 7 8 1011.4 - 0.0 - - - - - - -
28/04:30am 23.2 - 7 8 1011.4 - 0.0 - - - - - - -
28/04:00am 23.2 - 6 7 1011.6 - 0.0 - - - - - - -
28/03:30am 23.3 - 6 8 1011.9 - 0.0 - - - - - - -
28/03:00am 23.5 - 6 8 1012.1 - 0.0 - - - - - - -
28/02:30am 23.7 - 5 7 1012.6 - 0.0 - - - - - - -
28/02:00am 24.0 - 6 8 1012.8 - 0.0 - - - - - - -
28/01:30am 24.2 - 7 10 1013.0 - 0.0 - - - - - - -
28/01:00am 24.4 - 7 9 1013.1 - 0.0 - - - - - - -
28/12:30am 24.6 - 8 11 1013.3 - 0.0 - - - - - - -
28/12:00am 24.7 - 7 10 1013.4 - 0.0 - - - - - - -
 
Date/Time
CST
Temp
°C
Wind Pressure Rain since
9am
mm
Weather Cloud Vis
km
Sea
Height
m
Swell
Dir  Spd
kts
Gust
kts
hPa Trend Height
m
Period
s
Dir
27/11:30pm 25.1 - 7 10 1013.7 - 0.0 - - - - - - -
27/11:00pm 25.2 - 7 10 1013.6 - 0.0 - - - - - - -
27/10:30pm 25.4 SSE 6 8 1013.5 - 0.0 - - - - - - -
27/10:00pm 25.8 SE 7 10 1013.6 - 0.0 - - - - - - -
27/09:30pm 26.2 SSE 7 8 1013.5 - 0.0 - - - - - - -
27/09:00pm 26.4 SSE 7 9 1013.2 - 0.0 - - - - - - -
27/08:30pm 27.3 SSE 8 11 1013.1 - 0.0 - - - - - - -
27/08:00pm 27.9 SE 11 15 1012.6 - 0.0 - - - - - - -
27/07:30pm 27.6 SE 9 12 1012.0 - 0.0 - - - - - - -
27/07:00pm 27.9 SE 11 15 1011.7 - 0.0 - - - - - - -
27/06:30pm 28.6 SSE 11 16 1011.5 - 0.0 - - - - - - -
27/06:00pm 29.0 ESE 9 16 1011.0 - 0.0 - - - - - - -
27/05:30pm 30.1 ESE 10 14 1010.6 - 0.0 - - - - - - -
27/05:00pm 30.7 ESE 9 14 1010.3 - 0.0 - - - - - - -
27/04:30pm 30.7 E 6 10 1010.3 - 0.0 - - - - - - -
27/04:00pm 31.1 ESE 10 16 1010.3 - 0.0 - - - - - - -
27/03:30pm 30.3 ENE 9 15 1010.5 - 0.0 - - - - - - -
27/03:00pm 31.5 E 7 11 1010.6 - 0.0 - - - - - - -
27/02:30pm 30.9 E 8 13 1010.9 - 0.0 - - - - - - -
27/02:00pm 30.9 E 8 13 1011.0 - 0.0 - - - - - - -
27/01:30pm 31.1 ESE 10 15 1011.3 - 0.0 - - - - - - -
27/01:00pm 31.3 ESE 10 14 1011.7 - 0.0 - - - - - - -
27/12:30pm 31.2 ESE 10 18 1012.0 - 0.0 - - - - - - -
27/12:00pm 30.9 ESE 9 15 1012.2 - 0.0 - - - - - - -
27/11:30am 29.8 ESE 11 17 1012.6 - 0.0 - - - - - - -
27/11:00am 29.5 ESE 11 18 1013.0 - 0.0 - - - - - - -
27/10:30am 28.8 ESE 13 21 1013.1 - 0.0 - - - - - - -
27/10:00am 28.8 SE 12 16 1013.3 - 0.0 - - - - - - -
27/09:30am 27.6 E 10 15 1013.6 - 0.0 - - - - - - -
27/09:00am 27.4 - 8 12 1013.5 - 0.0 - - - - - - -
27/08:30am 25.3 - 8 10 1013.5 - 0.0 - - - - - - -
27/08:00am 23.9 - 7 11 1013.3 - 0.0 - - - - - - -
27/07:30am 23.1 - 6 9 1013.0 - 0.0 - - - - - - -
27/07:00am 22.1 - 6 8 1012.7 - 0.0 - - - - - - -
27/06:30am 21.9 - 6 8 1012.3 - 0.0 - - - - - - -
27/06:00am 21.9 - 5 7 1011.9 - 0.0 - - - - - - -
27/05:30am 22.1 - 5 7 1012.0 - 0.0 - - - - - - -
27/05:00am 22.3 - 5 6 1011.8 - 0.0 - - - - - - -
27/04:30am 22.9 - 6 7 1011.9 - 0.0 - - - - - - -
27/04:00am 23.3 - 6 8 1011.9 - 0.0 - - - - - - -
27/03:30am 23.3 - 7 9 1012.0 - 0.0 - - - - - - -
27/03:00am 22.9 - 5 7 1012.3 - 0.0 - - - - - - -
27/02:30am 23.2 - 6 8 1012.7 - 0.0 - - - - - - -
27/02:00am 23.5 - 7 10 1012.8 - 0.0 - - - - - - -
27/01:30am 23.9 - 8 11 1013.0 - 0.0 - - - - - - -
27/01:00am 24.0 - 8 10 1013.0 - 0.0 - - - - - - -
27/12:30am 24.4 - 8 11 1013.2 - 0.0 - - - - - - -
27/12:00am 24.7 - 8 11 1013.2 - 0.0 - - - - - - -
 
Date/Time
CST
Temp
°C
Wind Pressure Rain since
9am
mm
Weather Cloud Vis
km
Sea
Height
m
Swell
Dir  Spd
kts
Gust
kts
hPa Trend Height
m
Period
s
Dir
26/11:30pm 24.9 SE 8 10 1013.6 - 0.0 - - - - - - -
26/11:00pm 25.1 SE 8 11 1013.7 - 0.0 - - - - - - -

Other Formats:

Comma delimited format used in spreadsheet applications
http://www.bom.gov.au/fwo/IDD60701/IDD60701.94140.axf

JavaScript Object Notation format (JSON) in row-major order
http://www.bom.gov.au/fwo/IDD60701/IDD60701.94140.json